createdAt,value
2023-02-19T00:09:21.390Z,10.62
2023-02-19T00:19:22.837Z,10.64
2023-02-19T00:29:25.000Z,10.60
2023-02-19T00:39:26.421Z,10.59
2023-02-19T00:49:27.961Z,10.58
2023-02-19T00:59:29.332Z,10.61
2023-02-19T01:09:30.782Z,10.58
2023-02-19T01:19:32.205Z,10.56
2023-02-19T01:29:33.643Z,10.56
2023-02-19T01:39:35.157Z,10.54
2023-02-19T01:49:57.521Z,10.54
2023-02-19T02:00:10.048Z,10.57
2023-02-19T02:10:20.692Z,10.57
2023-02-19T02:20:52.411Z,10.58
2023-02-19T02:31:04.414Z,10.55
2023-02-19T02:41:06.720Z,10.52
2023-02-19T02:51:29.127Z,10.51
2023-02-19T03:01:53.744Z,10.52
2023-02-19T03:12:16.135Z,10.49
2023-02-19T03:22:22.774Z,10.49
2023-02-19T03:32:30.196Z,10.46
2023-02-19T03:42:56.160Z,10.40
2023-02-19T03:53:11.308Z,10.41
2023-02-19T04:03:23.144Z,10.39
2023-02-19T04:13:30.059Z,10.32
2023-02-19T04:23:37.662Z,10.30
2023-02-19T04:33:39.108Z,10.28
2023-02-19T04:43:40.498Z,10.26
2023-02-19T04:53:42.843Z,10.21
2023-02-19T05:03:45.023Z,10.18
2023-02-19T05:13:46.529Z,10.15
2023-02-19T05:23:48.000Z,10.13
2023-02-19T05:33:51.406Z,10.13
2023-02-19T05:43:53.307Z,10.10
2023-02-19T05:53:56.300Z,10.05
2023-02-19T06:03:58.506Z,10.03
2023-02-19T06:14:00.256Z,9.99
2023-02-19T06:24:08.654Z,9.96
2023-02-19T06:34:11.508Z,9.94
2023-02-19T06:44:12.891Z,9.95
2023-02-19T06:54:14.380Z,9.89
2023-02-19T07:04:15.911Z,9.86
2023-02-19T07:14:17.583Z,9.82
2023-02-19T07:24:21.366Z,9.80
2023-02-19T07:34:22.835Z,9.79
2023-02-19T07:44:24.166Z,9.80
2023-02-19T07:54:25.582Z,9.84
2023-02-19T08:04:27.071Z,9.89
2023-02-19T08:14:28.746Z,9.91
2023-02-19T08:24:31.209Z,9.93
2023-02-19T08:34:32.929Z,9.95
2023-02-19T08:44:34.892Z,9.99
2023-02-19T08:54:37.317Z,10.08
2023-02-19T09:04:39.486Z,10.13
2023-02-19T09:14:41.183Z,10.18
2023-02-19T09:24:43.693Z,10.21
2023-02-19T09:34:45.170Z,10.19
2023-02-19T09:44:53.035Z,10.23
2023-02-19T09:54:59.310Z,10.34
2023-02-19T10:05:02.608Z,10.38
2023-02-19T10:15:29.229Z,10.42
2023-02-19T10:25:33.007Z,10.47
2023-02-19T10:35:36.438Z,10.56
2023-02-19T10:45:56.113Z,10.66
2023-02-19T10:56:09.439Z,10.74
2023-02-19T11:06:13.212Z,10.81
2023-02-19T11:16:14.763Z,10.88
2023-02-19T11:26:20.818Z,10.94
2023-02-19T11:36:29.971Z,10.93
2023-02-19T11:46:35.352Z,10.97
2023-02-19T11:56:40.791Z,10.96
2023-02-19T12:07:16.881Z,11.04
2023-02-19T12:17:53.984Z,11.04
2023-02-19T12:28:14.342Z,10.95
2023-02-19T12:38:53.097Z,10.98
2023-02-19T12:49:13.206Z,10.96
2023-02-19T12:59:29.292Z,11.02
2023-02-19T13:09:33.873Z,11.07
2023-02-19T13:19:37.142Z,11.01
2023-02-19T13:30:12.579Z,11.02
2023-02-19T13:40:26.681Z,11.04
2023-02-19T13:50:34.350Z,10.92
2023-02-19T14:00:51.047Z,10.77
2023-02-19T14:10:57.960Z,10.75
2023-02-19T14:21:26.007Z,10.68
2023-02-19T14:31:29.323Z,10.67
2023-02-19T14:41:34.126Z,10.61
2023-02-19T14:51:40.188Z,10.63
2023-02-19T15:01:41.692Z,10.61
2023-02-19T15:11:43.503Z,10.54
2023-02-19T15:21:47.788Z,10.56
2023-02-19T15:31:53.087Z,10.53
2023-02-19T15:42:00.078Z,10.49
2023-02-19T15:52:10.501Z,10.46
2023-02-19T16:02:14.266Z,10.30
2023-02-19T16:12:24.587Z,10.23
2023-02-19T16:22:29.183Z,10.12
2023-02-19T16:32:30.723Z,10.11
2023-02-19T16:42:32.150Z,10.00
2023-02-19T16:52:33.624Z,9.91
2023-02-19T17:02:35.174Z,9.83
2023-02-19T17:12:36.522Z,9.76
2023-02-19T17:22:38.026Z,9.69
2023-02-19T17:32:39.761Z,9.63
2023-02-19T17:42:41.322Z,9.57
2023-02-19T17:52:42.884Z,9.47
2023-02-19T18:02:44.302Z,9.38
2023-02-19T18:12:45.850Z,9.11
2023-02-19T18:22:47.706Z,8.87
2023-02-19T18:32:50.346Z,8.74
2023-02-19T18:42:52.123Z,8.68
2023-02-19T18:52:53.582Z,8.60
2023-02-19T19:02:57.880Z,8.58
2023-02-19T19:12:59.405Z,8.47
2023-02-19T19:23:00.888Z,8.46
2023-02-19T19:33:03.419Z,8.45
2023-02-19T19:43:05.795Z,8.38
2023-02-19T19:53:07.264Z,8.35
2023-02-19T20:03:09.542Z,8.28
2023-02-19T20:13:11.085Z,8.17
2023-02-19T20:23:12.486Z,8.27
2023-02-19T20:33:14.041Z,8.19
2023-02-19T20:43:15.403Z,8.20
2023-02-19T20:53:16.878Z,8.22
2023-02-19T21:03:18.305Z,8.18
2023-02-19T21:13:19.665Z,8.08
2023-02-19T21:23:21.106Z,7.95
2023-02-19T21:33:22.522Z,7.87
2023-02-19T21:43:24.060Z,7.77
2023-02-19T21:53:25.405Z,7.64
2023-02-19T22:03:26.835Z,7.47
2023-02-19T22:13:28.174Z,7.30
2023-02-19T22:23:29.599Z,7.17
2023-02-19T22:33:31.171Z,7.11
2023-02-19T22:43:32.643Z,7.00
2023-02-19T22:53:34.085Z,6.91
2023-02-19T23:03:44.968Z,6.79
2023-02-19T23:13:46.438Z,6.69
2023-02-19T23:23:48.402Z,6.58
2023-02-19T23:33:49.789Z,6.43
2023-02-19T23:43:52.351Z,6.36
2023-02-19T23:53:53.864Z,6.29
